FVRG Airport Information

Runway Information
Airport Frequencies
Airport Navaids
Airport Weather Information & NOTAM
ADDS - METARS form results

(2212 UTC 28 September 2021)
Data provider http://aviationweather.gov/metar/data/
 
METAR text: FVRG 282200Z 08008KT CAVOK 19/07 Q1020 NOSIG
Conditions at: FVRG (HARARE/MUGABE , ZW) observed 2200 UTC 28 September 2021
Temperature: 19.0°C (66°F)
Dewpoint: 7.0°C (45°F) [RH = 46%]
Pressure (altimeter): 30.12 inches Hg (1020.0 mb)
Winds: from the E (80 degrees) at 9 MPH (8 knots; 4.1 m/s)
Visibility: 6 or more miles (10+ km)
Ceiling: ceiling and visibility are OK
Clouds: unknown
Weather: no significant weather observed at this time

Forecast for: FVRG (HARARE/MUGABE , ZW)
Text: TAF FVRG 282200Z 2900/3006 06010KT CAVOK
Forecast period: 0000 UTC 29 September 2021 to 0600 UTC 30 September 2021
Forecast type: FROM: standard forecast or significant change
Winds: from the ENE (60 degrees) at 12 MPH (10 knots; 5.1 m/s)
Visibility: 6 or more miles (10+ km)
Ceiling: unknown
Clouds: missing
Weather: NSW  (no significant weather)